Time;durP1;ratioP1;P1;durP2;ratioP2;P2;SDS_P1;SDS_P2;PMS_P1;PMS_P2;Temp;Humidity;BMP_temperature;BMP_pressure;BME280_temperature;BME280_humidity;BME280_pressure;Samples;Min_cycle;Max_cycle;Signal;HPM_P1;HPM_P2
2022/12/30 00:01:33;;;;;;;;;;;7.20;99.90;;;;;;5031768;28;20008;-75
2022/12/30 00:04:01;;;;;;;;;;;7.10;99.90;;;;;;5038267;28;20467;-74
2022/12/30 00:06:29;;;;;;;;;;;7.00;99.90;;;;;;5033775;28;20119;-75
2022/12/30 00:08:58;;;;;;;;;;;7.00;99.90;;;;;;5031151;28;19972;-76
2022/12/30 00:11:27;;;;;;;;;;;6.90;99.90;;;;;;5031927;28;19971;-73
2022/12/30 00:33:43;;;;;;;;;;;6.80;99.90;;;;;;5051144;28;19974;-73
2022/12/30 00:36:11;;;;;;;;;;;7.00;99.90;;;;;;5038571;28;20004;-73
2022/12/30 00:38:38;;;;;;;;;;;7.20;99.90;;;;;;5041273;28;19968;-73
2022/12/30 00:43:51;;;;;;;;;;;7.50;99.90;;;;;;5042833;28;20058;-79
2022/12/30 00:46:19;;;;;;;;;;;7.50;99.90;;;;;;5042006;28;20070;-72
2022/12/30 00:57:04;;;;;;;;;;;7.50;99.90;;;;;;5025275;28;19974;-72
2022/12/30 00:59:32;;;;;;;;;;;7.50;99.90;;;;;;5015889;28;20067;-70
2022/12/30 01:01:59;;;;;;;;;;;7.60;99.90;;;;;;5033111;28;20496;-72
2022/12/30 01:04:29;;;;;;;;;;;7.80;99.90;;;;;;5031781;28;19964;-72
2022/12/30 01:06:57;;;;;;;;;;;7.80;99.90;;;;;;5030884;28;20008;-73
2022/12/30 01:09:24;;;;;;;;;;;7.90;99.90;;;;;;5030030;28;20087;-73
2022/12/30 01:14:34;;;;;;;;;;;8.00;99.90;;;;;;5030566;28;20460;-71
2022/12/30 01:17:02;;;;;;;;;;;7.90;99.90;;;;;;5030744;28;19975;-74
2022/12/30 01:19:31;;;;;;;;;;;8.00;99.90;;;;;;5030592;28;20055;-72
2022/12/30 01:21:59;;;;;;;;;;;7.90;99.90;;;;;;5011933;28;19976;-72
2022/12/30 01:24:27;;;;;;;;;;;7.80;99.90;;;;;;5011898;28;20023;-71
2022/12/30 01:26:54;;;;;;;;;;;7.70;99.90;;;;;;5012483;28;20071;-72
2022/12/30 01:29:23;;;;;;;;;;;7.60;99.90;;;;;;5020198;28;20429;-72
2022/12/30 01:31:53;;;;;;;;;;;7.50;99.90;;;;;;5030750;28;20062;-72
2022/12/30 01:34:21;;;;;;;;;;;7.50;99.90;;;;;;5031610;28;19969;-72
2022/12/30 01:36:50;;;;;;;;;;;7.50;99.90;;;;;;5049559;28;19976;-72
2022/12/30 01:39:18;;;;;;;;;;;7.50;99.90;;;;;;5051518;28;20393;-72
2022/12/30 01:41:46;;;;;;;;;;;7.50;99.90;;;;;;5050863;28;20015;-72
2022/12/30 01:44:33;;;;;;;;;;;7.60;99.90;;;;;;5036107;28;19969;-71
2022/12/30 01:47:00;;;;;;;;;;;7.70;99.90;;;;;;5012279;28;20378;-71
2022/12/30 01:49:28;;;;;;;;;;;7.80;99.90;;;;;;5011635;28;20000;-69
2022/12/30 01:51:58;;;;;;;;;;;7.90;99.90;;;;;;5047133;28;19972;-71
2022/12/30 01:54:25;;;;;;;;;;;7.90;99.90;;;;;;5051271;28;20070;-72
2022/12/30 01:56:53;;;;;;;;;;;8.00;99.90;;;;;;5051338;28;19994;-71
2022/12/30 01:59:23;;;;;;;;;;;7.80;99.90;;;;;;5042606;28;20090;-72
2022/12/30 02:01:51;;;;;;;;;;;7.80;99.90;;;;;;5023286;28;20062;-72
2022/12/30 02:04:21;;;;;;;;;;;7.70;99.90;;;;;;5030953;28;20020;-72
2022/12/30 02:06:52;;;;;;;;;;;7.60;99.90;;;;;;5047357;28;20011;-72
2022/12/30 02:09:21;;;;;;;;;;;7.60;99.90;;;;;;5011821;28;20072;-71
2022/12/30 02:11:49;;;;;;;;;;;7.50;99.90;;;;;;5014180;28;19972;-72
2022/12/30 02:14:17;;;;;;;;;;;7.50;99.90;;;;;;5014702;28;19973;-72
2022/12/30 02:16:49;;;;;;;;;;;7.50;99.90;;;;;;5018428;28;20075;-72
2022/12/30 02:19:41;;;;;;;;;;;7.50;99.90;;;;;;5040491;28;19965;-73
2022/12/30 02:22:10;;;;;;;;;;;7.50;99.90;;;;;;5047236;28;19967;-71
2022/12/30 02:24:53;;;;;;;;;;;7.50;99.90;;;;;;5054548;28;20423;-71
2022/12/30 02:27:30;;;;;;;;;;;7.50;99.90;;;;;;5054817;28;20018;-71
2022/12/30 02:30:04;;;;;;;;;;;7.40;99.90;;;;;;5040522;28;20104;-72
2022/12/30 02:32:36;;;;;;;;;;;7.40;99.90;;;;;;5034517;28;19984;-71
2022/12/30 02:35:07;;;;;;;;;;;7.40;99.90;;;;;;5040384;28;20340;-73
2022/12/30 02:37:40;;;;;;;;;;;7.30;99.90;;;;;;5049706;28;19970;-73
2022/12/30 02:40:09;;;;;;;;;;;7.30;99.90;;;;;;5039107;28;19968;-73
2022/12/30 02:45:29;;;;;;;;;;;7.20;99.90;;;;;;5038766;28;19968;-73
2022/12/30 02:48:00;;;;;;;;;;;7.10;99.90;;;;;;5033648;28;20055;-73
2022/12/30 02:53:16;;;;;;;;;;;7.00;99.90;;;;;;5043478;28;19975;-73
2022/12/30 02:55:43;;;;;;;;;;;6.80;99.90;;;;;;5041075;28;20352;-72
2022/12/30 02:58:12;;;;;;;;;;;6.70;99.90;;;;;;5047932;28;20421;-71
2022/12/30 03:04:00;;;;;;;;;;;6.70;99.90;;;;;;5039067;28;19972;-72
2022/12/30 03:06:43;;;;;;;;;;;6.60;99.90;;;;;;5039829;28;20041;-73
2022/12/30 03:09:18;;;;;;;;;;;6.50;99.90;;;;;;5034740;28;20061;-73
2022/12/30 03:11:49;;;;;;;;;;;6.40;99.90;;;;;;5040936;28;19971;-72
2022/12/30 03:14:18;;;;;;;;;;;6.40;99.90;;;;;;5039636;28;20052;-73
2022/12/30 03:16:46;;;;;;;;;;;6.20;99.90;;;;;;5035941;28;19970;-73
2022/12/30 03:19:17;;;;;;;;;;;6.20;99.90;;;;;;5037149;28;20501;-74
2022/12/30 03:21:46;;;;;;;;;;;6.20;99.90;;;;;;5034888;28;19971;-73
2022/12/30 03:27:06;;;;;;;;;;;6.30;99.90;;;;;;5041409;28;20454;-72
2022/12/30 03:29:37;;;;;;;;;;;6.40;99.90;;;;;;5042689;28;20063;-74
2022/12/30 03:32:08;;;;;;;;;;;6.50;99.90;;;;;;5034642;28;22346;-72
2022/12/30 03:34:38;;;;;;;;;;;6.50;99.90;;;;;;5038119;28;19986;-73
2022/12/30 03:37:08;;;;;;;;;;;6.60;99.90;;;;;;5047180;28;20083;-73
2022/12/30 03:39:37;;;;;;;;;;;6.70;99.90;;;;;;5035364;28;19964;-70
2022/12/30 03:42:06;;;;;;;;;;;6.70;99.90;;;;;;5039474;28;19968;-71
2022/12/30 03:44:35;;;;;;;;;;;6.80;99.90;;;;;;5041717;28;20010;-72
2022/12/30 03:47:03;;;;;;;;;;;6.70;99.90;;;;;;5043995;28;20070;-71
2022/12/30 03:49:30;;;;;;;;;;;6.80;99.90;;;;;;5037122;28;19968;-69
2022/12/30 03:51:59;;;;;;;;;;;6.70;99.90;;;;;;5042811;28;19964;-72
2022/12/30 03:54:32;;;;;;;;;;;6.70;99.90;;;;;;5036726;28;20047;-71
2022/12/30 03:56:59;;;;;;;;;;;6.70;99.90;;;;;;5040528;28;20055;-71
2022/12/30 03:59:27;;;;;;;;;;;6.70;99.90;;;;;;5032049;28;20063;-69
2022/12/30 04:01:55;;;;;;;;;;;6.70;99.90;;;;;;5038168;28;20058;-71
2022/12/30 04:04:22;;;;;;;;;;;6.50;99.90;;;;;;5049922;28;19968;-71
2022/12/30 04:06:50;;;;;;;;;;;6.40;99.90;;;;;;5049709;28;20415;-71
2022/12/30 04:09:19;;;;;;;;;;;6.30;99.90;;;;;;5037244;28;19969;-71
2022/12/30 04:11:47;;;;;;;;;;;6.40;99.90;;;;;;5032774;28;20072;-72
2022/12/30 04:14:15;;;;;;;;;;;6.40;99.90;;;;;;5041895;28;20353;-72
2022/12/30 04:16:43;;;;;;;;;;;6.40;99.90;;;;;;5045723;28;20070;-72
2022/12/30 04:19:10;;;;;;;;;;;6.40;99.90;;;;;;5040732;28;20508;-72
2022/12/30 04:21:38;;;;;;;;;;;6.40;99.90;;;;;;5040884;28;19964;-71
2022/12/30 04:24:06;;;;;;;;;;;6.50;99.90;;;;;;5045625;28;20429;-73
2022/12/30 04:26:35;;;;;;;;;;;6.60;99.90;;;;;;5051649;28;20062;-72
2022/12/30 04:29:03;;;;;;;;;;;6.60;99.90;;;;;;5032461;28;19983;-73
2022/12/30 04:31:30;;;;;;;;;;;6.70;99.90;;;;;;5033989;28;20457;-72
2022/12/30 04:33:58;;;;;;;;;;;6.80;99.90;;;;;;5036453;28;19975;-73
2022/12/30 04:36:34;;;;;;;;;;;6.90;99.90;;;;;;5049695;28;20003;-72
2022/12/30 04:39:02;;;;;;;;;;;7.00;99.90;;;;;;5041840;28;20419;-73
2022/12/30 04:41:29;;;;;;;;;;;7.10;99.90;;;;;;5042334;28;19968;-73
2022/12/30 04:44:01;;;;;;;;;;;7.10;99.90;;;;;;5045131;28;19972;-72
2022/12/30 04:46:29;;;;;;;;;;;7.10;99.90;;;;;;5035943;28;20000;-73
2022/12/30 04:48:57;;;;;;;;;;;7.10;99.90;;;;;;5039622;28;19986;-73
2022/12/30 04:51:25;;;;;;;;;;;7.10;99.90;;;;;;5033900;28;20345;-73
2022/12/30 04:53:52;;;;;;;;;;;7.10;99.90;;;;;;5038281;28;19972;-73
2022/12/30 04:56:20;;;;;;;;;;;7.00;99.90;;;;;;5038922;28;19968;-72
2022/12/30 04:58:52;;;;;;;;;;;7.10;99.90;;;;;;5032880;28;20008;-73
2022/12/30 05:01:21;;;;;;;;;;;7.10;99.90;;;;;;5035834;28;19988;-72
2022/12/30 05:03:49;;;;;;;;;;;7.20;99.90;;;;;;5036339;28;20018;-72
2022/12/30 05:06:17;;;;;;;;;;;7.30;99.90;;;;;;5038559;28;19965;-71
2022/12/30 05:08:45;;;;;;;;;;;7.40;99.90;;;;;;5042117;28;19963;-73
2022/12/30 05:11:13;;;;;;;;;;;7.40;99.90;;;;;;5035143;28;20356;-72
2022/12/30 05:13:40;;;;;;;;;;;7.50;99.90;;;;;;5042505;28;19968;-72
2022/12/30 05:16:14;;;;;;;;;;;7.50;99.90;;;;;;5044500;28;20038;-70
2022/12/30 05:18:43;;;;;;;;;;;7.60;99.90;;;;;;5049870;28;19965;-73
2022/12/30 05:21:11;;;;;;;;;;;7.60;99.90;;;;;;5036202;28;20059;-72
2022/12/30 05:26:24;;;;;;;;;;;7.50;99.90;;;;;;5035695;28;21208;-72
2022/12/30 05:28:51;;;;;;;;;;;7.50;99.90;;;;;;5030763;28;19971;-70
2022/12/30 05:31:19;;;;;;;;;;;7.60;99.90;;;;;;5031363;28;20530;-72
2022/12/30 05:33:49;;;;;;;;;;;7.60;99.90;;;;;;5035107;28;20446;-73
2022/12/30 05:36:16;;;;;;;;;;;7.70;99.90;;;;;;5040495;28;20067;-71
2022/12/30 05:38:44;;;;;;;;;;;7.70;99.90;;;;;;5033884;28;20457;-73
2022/12/30 05:41:11;;;;;;;;;;;7.80;99.90;;;;;;5029015;28;20527;-72
2022/12/30 05:43:47;;;;;;;;;;;7.90;99.90;;;;;;5040790;28;20000;-73
2022/12/30 05:46:14;;;;;;;;;;;7.80;99.90;;;;;;5043427;28;20038;-73
2022/12/30 05:48:42;;;;;;;;;;;7.80;99.90;;;;;;5042243;28;19996;-73
2022/12/30 05:51:11;;;;;;;;;;;7.90;99.90;;;;;;5042456;28;20018;-72
2022/12/30 05:53:39;;;;;;;;;;;7.90;99.90;;;;;;5037599;28;20079;-70
2022/12/30 05:56:07;;;;;;;;;;;7.80;99.90;;;;;;5040802;28;19975;-68
2022/12/30 05:58:35;;;;;;;;;;;7.70;99.90;;;;;;5049878;28;19964;-70
2022/12/30 06:01:03;;;;;;;;;;;7.80;99.90;;;;;;5041631;28;20015;-70
2022/12/30 06:03:30;;;;;;;;;;;7.90;99.90;;;;;;5041261;28;19972;-70
2022/12/30 06:05:59;;;;;;;;;;;7.70;99.90;;;;;;5038143;28;19964;-70
2022/12/30 06:08:29;;;;;;;;;;;7.70;99.90;;;;;;5040361;28;19965;-70
2022/12/30 06:10:56;;;;;;;;;;;7.60;99.90;;;;;;5037193;28;19987;-70
2022/12/30 06:13:24;;;;;;;;;;;7.30;99.90;;;;;;5038933;28;20447;-71
2022/12/30 06:15:52;;;;;;;;;;;7.10;99.90;;;;;;5037430;28;20063;-70
2022/12/30 06:18:20;;;;;;;;;;;6.70;99.90;;;;;;5047127;28;20349;-69
2022/12/30 06:20:48;;;;;;;;;;;6.90;99.90;;;;;;5040511;28;19967;-69
2022/12/30 06:23:15;;;;;;;;;;;7.00;99.90;;;;;;5048383;28;19973;-69
2022/12/30 06:25:44;;;;;;;;;;;7.20;99.90;;;;;;5054607;28;20074;-70
2022/12/30 06:28:12;;;;;;;;;;;7.00;99.90;;;;;;5040530;28;20083;-69
2022/12/30 06:30:40;;;;;;;;;;;6.90;99.90;;;;;;5036848;28;20063;-71
2022/12/30 06:33:08;;;;;;;;;;;6.70;99.90;;;;;;5043005;28;20022;-70
2022/12/30 06:35:36;;;;;;;;;;;6.60;99.90;;;;;;5047756;28;19971;-71
2022/12/30 06:38:03;;;;;;;;;;;6.40;99.90;;;;;;5044592;28;19975;-68
2022/12/30 06:40:31;;;;;;;;;;;6.40;99.90;;;;;;5039355;28;19986;-70
2022/12/30 06:43:00;;;;;;;;;;;6.40;99.90;;;;;;5044053;28;20067;-69
2022/12/30 06:45:28;;;;;;;;;;;6.60;99.90;;;;;;5038100;28;19968;-70
2022/12/30 06:47:55;;;;;;;;;;;7.00;99.90;;;;;;5040533;28;19973;-70
2022/12/30 06:50:24;;;;;;;;;;;7.20;99.90;;;;;;5037427;28;20003;-71
2022/12/30 06:52:51;;;;;;;;;;;7.40;99.90;;;;;;5042548;28;19975;-70
2022/12/30 06:55:21;;;;;;;;;;;7.60;99.90;;;;;;5043339;28;20347;-71
2022/12/30 06:57:49;;;;;;;;;;;7.80;99.90;;;;;;5039527;28;19968;-71
2022/12/30 07:00:18;;;;;;;;;;;7.90;99.90;;;;;;5035902;28;20348;-69
2022/12/30 07:02:46;;;;;;;;;;;8.00;99.90;;;;;;5037775;28;20062;-70
2022/12/30 07:05:14;;;;;;;;;;;8.20;99.90;;;;;;5047023;28;19968;-70
2022/12/30 07:07:42;;;;;;;;;;;8.30;99.90;;;;;;5032364;28;19968;-70
2022/12/30 07:10:09;;;;;;;;;;;8.40;99.90;;;;;;5027283;28;20019;-70
2022/12/30 07:12:37;;;;;;;;;;;8.40;99.90;;;;;;5034027;28;19968;-69
2022/12/30 07:15:06;;;;;;;;;;;8.40;99.90;;;;;;5033540;28;19975;-70
2022/12/30 07:17:35;;;;;;;;;;;8.40;99.90;;;;;;5034024;28;19968;-69
2022/12/30 07:20:03;;;;;;;;;;;8.60;99.90;;;;;;5033305;28;19991;-71
2022/12/30 07:22:30;;;;;;;;;;;8.60;99.90;;;;;;5033824;28;20060;-70
2022/12/30 07:24:58;;;;;;;;;;;8.60;99.90;;;;;;5038251;28;19970;-70
2022/12/30 07:27:26;;;;;;;;;;;8.70;99.90;;;;;;5046757;28;19972;-70
2022/12/30 07:29:53;;;;;;;;;;;8.70;99.90;;;;;;5037194;28;19971;-71
2022/12/30 07:32:21;;;;;;;;;;;8.70;99.90;;;;;;5031226;28;20067;-70
2022/12/30 07:34:50;;;;;;;;;;;8.70;99.90;;;;;;5038087;28;19987;-70
2022/12/30 07:37:18;;;;;;;;;;;8.70;99.90;;;;;;5040699;28;20015;-70
2022/12/30 07:39:46;;;;;;;;;;;8.70;99.90;;;;;;5032353;28;20258;-68
2022/12/30 07:42:13;;;;;;;;;;;8.70;99.90;;;;;;5035971;28;19968;-68
2022/12/30 07:44:41;;;;;;;;;;;8.60;99.90;;;;;;5035167;28;19976;-68
2022/12/30 07:47:09;;;;;;;;;;;8.60;99.90;;;;;;5032710;28;20000;-70
2022/12/30 07:49:36;;;;;;;;;;;8.60;99.90;;;;;;5032642;28;19974;-70
2022/12/30 07:52:06;;;;;;;;;;;8.60;99.90;;;;;;5032530;28;20033;-69
2022/12/30 07:54:34;;;;;;;;;;;8.70;99.90;;;;;;5031793;28;20046;-70
2022/12/30 07:57:01;;;;;;;;;;;8.80;99.90;;;;;;5034451;28;20433;-69
2022/12/30 07:59:29;;;;;;;;;;;8.90;99.90;;;;;;5031952;28;20051;-70
2022/12/30 08:01:57;;;;;;;;;;;8.60;99.90;;;;;;5038052;28;20417;-70
2022/12/30 08:04:25;;;;;;;;;;;8.70;99.90;;;;;;5033550;28;19968;-68
2022/12/30 08:07:15;;;;;;;;;;;8.90;99.90;;;;;;5028542;28;19968;-68
2022/12/30 08:09:43;;;;;;;;;;;8.90;99.90;;;;;;5036021;28;20007;-70
2022/12/30 08:12:11;;;;;;;;;;;8.50;99.90;;;;;;5050634;28;20429;-70
2022/12/30 08:14:38;;;;;;;;;;;8.10;99.90;;;;;;5035142;28;19968;-72
2022/12/30 08:17:06;;;;;;;;;;;7.90;99.90;;;;;;5038843;28;20059;-71
2022/12/30 08:19:34;;;;;;;;;;;7.70;99.90;;;;;;5038749;28;20010;-70
2022/12/30 08:22:01;;;;;;;;;;;7.50;99.90;;;;;;5031717;28;20026;-71
2022/12/30 08:24:30;;;;;;;;;;;7.30;99.90;;;;;;5031612;28;20000;-71
2022/12/30 08:26:58;;;;;;;;;;;7.20;99.90;;;;;;5046149;28;19971;-70
2022/12/30 08:29:26;;;;;;;;;;;7.40;99.90;;;;;;5041708;28;19975;-71
2022/12/30 08:31:53;;;;;;;;;;;7.70;99.90;;;;;;5030970;28;19964;-73
2022/12/30 08:34:21;;;;;;;;;;;8.30;99.90;;;;;;5040973;28;19976;-72
2022/12/30 08:36:49;;;;;;;;;;;8.50;99.90;;;;;;5043843;28;19965;-71
2022/12/30 08:39:17;;;;;;;;;;;8.50;99.90;;;;;;5032529;28;20055;-72
2022/12/30 08:41:46;;;;;;;;;;;8.90;99.90;;;;;;5031516;28;20063;-71
2022/12/30 08:44:23;;;;;;;;;;;8.60;99.90;;;;;;5033665;28;19968;-72
2022/12/30 08:46:50;;;;;;;;;;;8.30;99.90;;;;;;5045589;28;20003;-72
2022/12/30 08:49:18;;;;;;;;;;;8.00;99.90;;;;;;5039268;28;19976;-71
2022/12/30 08:51:46;;;;;;;;;;;8.00;99.90;;;;;;5031371;28;19968;-73
2022/12/30 08:54:14;;;;;;;;;;;8.10;99.90;;;;;;5031308;28;20096;-71
2022/12/30 08:56:41;;;;;;;;;;;7.90;99.90;;;;;;5037945;28;20000;-72
2022/12/30 08:59:11;;;;;;;;;;;7.60;99.90;;;;;;5033717;28;19972;-73
2022/12/30 09:01:43;;;;;;;;;;;7.40;99.90;;;;;;5038110;28;20003;-73
2022/12/30 09:04:11;;;;;;;;;;;7.40;99.90;;;;;;5034267;28;19968;-73
2022/12/30 09:06:40;;;;;;;;;;;7.40;99.90;;;;;;5028641;28;20008;-72
2022/12/30 09:09:09;;;;;;;;;;;7.30;99.90;;;;;;5029215;28;20071;-74
2022/12/30 09:11:38;;;;;;;;;;;7.20;99.90;;;;;;5030448;28;20341;-72
2022/12/30 09:14:07;;;;;;;;;;;7.20;99.90;;;;;;5032719;28;20011;-72
2022/12/30 09:16:36;;;;;;;;;;;7.20;99.90;;;;;;5026125;28;20406;-72
2022/12/30 09:19:04;;;;;;;;;;;7.10;99.90;;;;;;5028870;28;19968;-73
2022/12/30 09:21:32;;;;;;;;;;;7.20;99.90;;;;;;5036540;28;19972;-72
2022/12/30 09:24:00;;;;;;;;;;;7.20;99.90;;;;;;5034214;28;20458;-73
2022/12/30 09:26:28;;;;;;;;;;;7.30;99.90;;;;;;5029495;28;19969;-71
2022/12/30 09:28:56;;;;;;;;;;;7.40;99.90;;;;;;5028192;28;19969;-72
2022/12/30 09:31:24;;;;;;;;;;;7.30;99.90;;;;;;5029565;28;19971;-73
2022/12/30 09:33:53;;;;;;;;;;;7.40;99.90;;;;;;5031190;28;19971;-73
2022/12/30 09:36:21;;;;;;;;;;;7.40;99.90;;;;;;5033133;28;20264;-72
2022/12/30 09:38:49;;;;;;;;;;;7.40;99.90;;;;;;5026574;28;20019;-72
2022/12/30 09:43:14;;;;;;;;;;;7.40;99.90;;;;;;5022419;28;20397;-71
2022/12/30 09:44:15;;;;;;;;;;;7.50;99.90;;;;;;5024779;28;19975;-72
2022/12/30 09:46:46;;;;;;;;;;;7.60;99.90;;;;;;5027532;28;20099;-73
2022/12/30 09:49:21;;;;;;;;;;;7.70;99.90;;;;;;5032868;28;20488;-73
2022/12/30 09:51:54;;;;;;;;;;;8.00;99.90;;;;;;5031729;28;19964;-71
2022/12/30 09:54:24;;;;;;;;;;;8.20;99.90;;;;;;5036469;28;20007;-71
2022/12/30 09:56:57;;;;;;;;;;;8.30;99.90;;;;;;5036289;28;20055;-73
2022/12/30 09:59:26;;;;;;;;;;;8.50;99.90;;;;;;5043573;28;20156;-73
2022/12/30 10:01:55;;;;;;;;;;;8.90;99.90;;;;;;5024429;28;19968;-73
2022/12/30 10:04:26;;;;;;;;;;;9.00;99.90;;;;;;5030423;28;19969;-73
2022/12/30 10:06:56;;;;;;;;;;;9.30;99.90;;;;;;5030780;28;20007;-72
2022/12/30 10:09:32;;;;;;;;;;;9.20;99.90;;;;;;5031875;28;19979;-72
2022/12/30 10:12:05;;;;;;;;;;;9.20;99.90;;;;;;5036809;28;19968;-73
2022/12/30 10:14:37;;;;;;;;;;;9.30;99.90;;;;;;5027303;28;20000;-72
2022/12/30 10:17:11;;;;;;;;;;;9.20;99.90;;;;;;5010985;28;20063;-74
2022/12/30 10:19:44;;;;;;;;;;;9.20;99.90;;;;;;5010689;28;20019;-73
2022/12/30 10:22:17;;;;;;;;;;;9.30;99.90;;;;;;5011100;28;20060;-71
2022/12/30 10:24:50;;;;;;;;;;;9.20;99.90;;;;;;5039766;28;20070;-72
2022/12/30 10:27:19;;;;;;;;;;;9.30;99.90;;;;;;5037669;28;19992;-73
2022/12/30 10:29:47;;;;;;;;;;;9.30;99.90;;;;;;5028473;28;19968;-72
2022/12/30 10:32:25;;;;;;;;;;;9.20;99.90;;;;;;5036052;28;20433;-72
2022/12/30 10:34:56;;;;;;;;;;;9.00;99.90;;;;;;5053985;28;19974;-73
2022/12/30 10:37:30;;;;;;;;;;;8.90;99.90;;;;;;5054104;28;19999;-73
2022/12/30 10:39:59;;;;;;;;;;;8.80;99.90;;;;;;5034450;28;20059;-73
2022/12/30 10:42:40;;;;;;;;;;;8.70;99.90;;;;;;5032984;28;20401;-72
2022/12/30 10:45:18;;;;;;;;;;;8.70;99.90;;;;;;5039200;28;20058;-72
2022/12/30 10:47:51;;;;;;;;;;;8.60;99.90;;;;;;5035120;28;19961;-73
2022/12/30 10:50:26;;;;;;;;;;;8.60;99.90;;;;;;5033294;28;19968;-72
2022/12/30 10:52:53;;;;;;;;;;;8.60;99.90;;;;;;5034393;28;20325;-73
2022/12/30 10:55:29;;;;;;;;;;;8.50;99.90;;;;;;5033259;28;19960;-73
2022/12/30 10:57:59;;;;;;;;;;;8.60;99.90;;;;;;5035948;28;19961;-72
2022/12/30 11:00:27;;;;;;;;;;;8.50;99.90;;;;;;5036126;28;20055;-73
2022/12/30 11:02:57;;;;;;;;;;;8.40;99.90;;;;;;5033317;28;20226;-73
2022/12/30 11:05:34;;;;;;;;;;;8.50;99.90;;;;;;5037571;28;19967;-72
2022/12/30 11:08:03;;;;;;;;;;;8.40;99.90;;;;;;5028323;28;19999;-73
2022/12/30 11:10:31;;;;;;;;;;;8.50;99.90;;;;;;5024695;28;19988;-73
2022/12/30 11:15:53;;;;;;;;;;;8.60;99.90;;;;;;5029366;28;19968;-72
2022/12/30 11:18:22;;;;;;;;;;;8.60;99.90;;;;;;5039422;28;20003;-71
2022/12/30 11:20:54;;;;;;;;;;;8.70;99.90;;;;;;5043898;28;20007;-71
2022/12/30 11:23:24;;;;;;;;;;;8.70;99.90;;;;;;5019193;28;20348;-71
2022/12/30 11:25:52;;;;;;;;;;;8.70;99.90;;;;;;5043919;28;19964;-71
2022/12/30 11:28:22;;;;;;;;;;;8.70;99.90;;;;;;5042570;28;19972;-73
2022/12/30 11:30:56;;;;;;;;;;;8.70;99.90;;;;;;5039266;28;20054;-73
2022/12/30 11:33:25;;;;;;;;;;;8.70;99.90;;;;;;5047313;28;20003;-72
2022/12/30 11:35:54;;;;;;;;;;;8.70;99.90;;;;;;5038188;28;19968;-73
2022/12/30 11:38:29;;;;;;;;;;;8.60;99.90;;;;;;5037350;28;19964;-72
2022/12/30 11:40:57;;;;;;;;;;;8.60;99.90;;;;;;5043623;28;20393;-71
2022/12/30 11:43:25;;;;;;;;;;;8.50;99.90;;;;;;5030987;28;20015;-73
2022/12/30 11:45:56;;;;;;;;;;;8.50;99.90;;;;;;5029480;28;19988;-71
2022/12/30 11:48:29;;;;;;;;;;;8.50;99.90;;;;;;5032154;28;19972;-70
2022/12/30 11:50:58;;;;;;;;;;;8.50;99.90;;;;;;5031216;28;20054;-72
2022/12/30 11:53:29;;;;;;;;;;;8.40;99.90;;;;;;5040714;28;19987;-72
2022/12/30 11:55:57;;;;;;;;;;;8.40;99.90;;;;;;5050571;28;19964;-73
2022/12/30 11:58:24;;;;;;;;;;;8.40;99.90;;;;;;5052596;28;19968;-72
2022/12/30 12:01:03;;;;;;;;;;;8.40;99.90;;;;;;5039921;28;19961;-71
2022/12/30 12:03:31;;;;;;;;;;;8.40;99.90;;;;;;5047196;28;20004;-71
2022/12/30 12:06:08;;;;;;;;;;;8.30;99.90;;;;;;5052556;28;20432;-71
2022/12/30 12:08:43;;;;;;;;;;;8.30;99.90;;;;;;5051582;28;19964;-72
2022/12/30 12:11:14;;;;;;;;;;;8.30;99.90;;;;;;5052050;28;20062;-72
2022/12/30 12:13:46;;;;;;;;;;;8.40;99.90;;;;;;5052817;28;19994;-73
2022/12/30 12:16:16;;;;;;;;;;;8.40;99.90;;;;;;5052332;28;19968;-72
2022/12/30 12:18:44;;;;;;;;;;;8.40;99.90;;;;;;5043179;28;19965;-73
2022/12/30 12:21:19;;;;;;;;;;;8.40;99.90;;;;;;5029428;28;20008;-73
2022/12/30 12:23:50;;;;;;;;;;;8.40;99.90;;;;;;5045157;28;19983;-72
2022/12/30 12:26:19;;;;;;;;;;;8.40;99.90;;;;;;5038543;28;19968;-73
2022/12/30 12:28:48;;;;;;;;;;;8.40;99.90;;;;;;5032019;28;20340;-72
2022/12/30 12:31:31;;;;;;;;;;;8.50;99.90;;;;;;5038491;28;20414;-73
2022/12/30 12:34:01;;;;;;;;;;;8.40;99.90;;;;;;5034233;28;19975;-73
2022/12/30 12:36:37;;;;;;;;;;;8.50;99.90;;;;;;5040605;28;20433;-73
2022/12/30 12:39:08;;;;;;;;;;;8.60;99.90;;;;;;5025623;28;19967;-73
2022/12/30 12:41:42;;;;;;;;;;;8.60;99.90;;;;;;5033120;28;19973;-73
2022/12/30 12:44:16;;;;;;;;;;;8.60;99.90;;;;;;5031500;28;19964;-73
2022/12/30 12:46:49;;;;;;;;;;;8.60;99.90;;;;;;5026505;28;20497;-72
2022/12/30 12:49:29;;;;;;;;;;;8.60;99.90;;;;;;5027169;28;19969;-73
2022/12/30 12:52:04;;;;;;;;;;;8.70;99.90;;;;;;5022207;28;19964;-74
2022/12/30 12:54:41;;;;;;;;;;;8.70;99.90;;;;;;5032069;28;20025;-72
2022/12/30 12:57:22;;;;;;;;;;;8.70;99.90;;;;;;5051076;28;19967;-73
2022/12/30 12:59:56;;;;;;;;;;;8.70;99.90;;;;;;5029145;28;19960;-73
2022/12/30 13:02:36;;;;;;;;;;;8.70;99.90;;;;;;5029561;28;20055;-73
2022/12/30 13:05:22;;;;;;;;;;;8.80;99.90;;;;;;5029558;28;19964;-73
2022/12/30 13:07:57;;;;;;;;;;;8.80;99.90;;;;;;5050692;28;20388;-73
2022/12/30 13:10:46;;;;;;;;;;;8.80;99.90;;;;;;5043641;28;19967;-73
2022/12/30 13:13:36;;;;;;;;;;;8.80;99.90;;;;;;5038336;28;19960;-73
2022/12/30 13:16:06;;;;;;;;;;;8.80;99.90;;;;;;5051886;28;19971;-73
2022/12/30 13:18:36;;;;;;;;;;;8.90;99.90;;;;;;5049237;28;20010;-73
2022/12/30 13:21:05;;;;;;;;;;;8.90;99.90;;;;;;5039910;28;20412;-72
2022/12/30 13:23:37;;;;;;;;;;;8.90;99.90;;;;;;5050784;28;20047;-73
2022/12/30 13:26:05;;;;;;;;;;;9.00;99.90;;;;;;5046345;28;19980;-73
2022/12/30 13:28:34;;;;;;;;;;;9.00;99.90;;;;;;5030685;28;19983;-73
2022/12/30 13:31:10;;;;;;;;;;;9.00;99.90;;;;;;5036963;28;20000;-73
2022/12/30 13:33:44;;;;;;;;;;;9.00;99.90;;;;;;5029454;28;19961;-73
2022/12/30 13:36:16;;;;;;;;;;;9.00;99.90;;;;;;5034392;28;19964;-72
2022/12/30 13:38:55;;;;;;;;;;;9.10;99.90;;;;;;5030774;28;21362;-73
2022/12/30 13:41:29;;;;;;;;;;;9.00;99.90;;;;;;5031205;28;20007;-72
2022/12/30 13:43:58;;;;;;;;;;;9.00;99.90;;;;;;5031700;28;20512;-71
2022/12/30 13:46:27;;;;;;;;;;;9.00;99.90;;;;;;5035040;28;20063;-71
2022/12/30 13:48:57;;;;;;;;;;;9.00;99.90;;;;;;5032497;28;19968;-72
2022/12/30 13:51:25;;;;;;;;;;;9.10;99.90;;;;;;5030232;28;20460;-73
2022/12/30 13:53:56;;;;;;;;;;;9.00;99.90;;;;;;5032018;28;19960;-70
2022/12/30 13:56:33;;;;;;;;;;;9.00;99.90;;;;;;5030617;28;19964;-71
2022/12/30 13:59:01;;;;;;;;;;;9.00;99.90;;;;;;5028216;28;20012;-72
2022/12/30 14:01:31;;;;;;;;;;;9.00;99.90;;;;;;5027852;28;20054;-73
2022/12/30 14:04:17;;;;;;;;;;;9.00;99.90;;;;;;5032002;28;19961;-72
2022/12/30 14:06:46;;;;;;;;;;;9.00;99.90;;;;;;5032226;28;20054;-70
2022/12/30 14:09:16;;;;;;;;;;;9.00;99.90;;;;;;5034269;28;20487;-72
2022/12/30 14:12:02;;;;;;;;;;;9.00;99.90;;;;;;5036085;28;20055;-69
2022/12/30 14:14:30;;;;;;;;;;;9.00;99.90;;;;;;5037284;28;20508;-72
2022/12/30 14:17:00;;;;;;;;;;;9.10;99.90;;;;;;5036700;28;20067;-69
2022/12/30 14:19:34;;;;;;;;;;;9.10;99.90;;;;;;5033921;28;20436;-72
2022/12/30 14:22:02;;;;;;;;;;;9.00;99.90;;;;;;5036530;28;20038;-70
2022/12/30 14:24:47;;;;;;;;;;;9.10;99.90;;;;;;5035269;28;20015;-70
2022/12/30 14:27:30;;;;;;;;;;;9.10;99.90;;;;;;5036243;28;20014;-71
2022/12/30 14:30:01;;;;;;;;;;;9.10;99.90;;;;;;5030941;28;19968;-72
2022/12/30 14:32:29;;;;;;;;;;;9.10;99.90;;;;;;5032221;28;20067;-71
2022/12/30 14:34:58;;;;;;;;;;;9.00;99.90;;;;;;5030966;28;20059;-70
2022/12/30 14:37:35;;;;;;;;;;;9.00;99.90;;;;;;5033456;28;19964;-69
2022/12/30 14:40:18;;;;;;;;;;;9.00;99.90;;;;;;5032401;28;20074;-70
2022/12/30 14:42:53;;;;;;;;;;;9.00;99.90;;;;;;5039416;28;19964;-72
2022/12/30 14:45:24;;;;;;;;;;;8.90;99.90;;;;;;5046207;28;20022;-73
2022/12/30 14:47:52;;;;;;;;;;;8.90;99.90;;;;;;5042399;28;19964;-73
2022/12/30 14:50:21;;;;;;;;;;;8.80;99.90;;;;;;5053504;28;20023;-73
2022/12/30 14:52:52;;;;;;;;;;;8.80;99.90;;;;;;5047123;28;19964;-73
2022/12/30 14:55:21;;;;;;;;;;;8.70;99.90;;;;;;5047189;28;20072;-74
2022/12/30 14:57:59;;;;;;;;;;;8.70;99.90;;;;;;5047983;28;20055;-74
2022/12/30 15:00:28;;;;;;;;;;;8.70;99.90;;;;;;5053474;28;20005;-73
2022/12/30 15:02:57;;;;;;;;;;;8.60;99.90;;;;;;5052577;28;19968;-74
2022/12/30 15:05:34;;;;;;;;;;;8.60;99.90;;;;;;5036018;28;20026;-73
2022/12/30 15:08:04;;;;;;;;;;;8.50;99.90;;;;;;5033114;28;20354;-72
2022/12/30 15:10:37;;;;;;;;;;;8.50;99.90;;;;;;5052440;28;20432;-76
2022/12/30 15:13:14;;;;;;;;;;;8.40;99.90;;;;;;5050704;28;20018;-74
2022/12/30 15:15:45;;;;;;;;;;;8.40;99.90;;;;;;5046414;28;19972;-74
2022/12/30 15:18:27;;;;;;;;;;;8.40;99.90;;;;;;5049923;28;19972;-74
2022/12/30 15:20:55;;;;;;;;;;;8.40;99.90;;;;;;5044197;28;19968;-74
2022/12/30 15:23:22;;;;;;;;;;;8.30;99.90;;;;;;5020487;28;19969;-73
2022/12/30 15:25:56;;;;;;;;;;;8.40;99.90;;;;;;5014043;28;20067;-74
2022/12/30 15:28:26;;;;;;;;;;;8.30;99.90;;;;;;5039226;28;19972;-75
2022/12/30 15:30:54;;;;;;;;;;;8.30;99.90;;;;;;5047287;28;19967;-75
2022/12/30 15:33:21;;;;;;;;;;;8.30;99.90;;;;;;5030470;28;19964;-75
2022/12/30 15:35:49;;;;;;;;;;;8.40;99.90;;;;;;5035443;28;19960;-74
2022/12/30 15:38:22;;;;;;;;;;;8.40;99.90;;;;;;5025861;28;20349;-73
2022/12/30 15:40:51;;;;;;;;;;;8.30;99.90;;;;;;5032858;28;20051;-74